createdAt,value
2023-03-12T00:00:23.077Z,1.52
2023-03-12T00:02:52.865Z,2.20
2023-03-12T00:05:22.090Z,1.60
2023-03-12T00:07:50.263Z,4.17
2023-03-12T00:10:19.614Z,2.20
2023-03-12T00:12:47.565Z,1.95
2023-03-12T00:15:15.233Z,2.12
2023-03-12T00:17:42.981Z,1.75
2023-03-12T00:20:14.980Z,2.15
2023-03-12T00:22:42.973Z,1.60
2023-03-12T00:25:14.840Z,1.70
2023-03-12T00:27:43.642Z,1.60
2023-03-12T00:30:12.516Z,1.27
2023-03-12T00:32:40.237Z,1.30
2023-03-12T00:35:08.988Z,1.47
2023-03-12T00:37:38.018Z,1.40
2023-03-12T00:40:09.337Z,1.30
2023-03-12T00:42:36.922Z,1.35
2023-03-12T00:45:06.361Z,1.35
2023-03-12T00:47:34.009Z,1.70
2023-03-12T00:50:02.002Z,1.50
2023-03-12T00:52:30.031Z,1.57
2023-03-12T00:54:58.477Z,1.72
2023-03-12T00:57:26.350Z,1.25
2023-03-12T00:59:54.216Z,1.25
2023-03-12T01:02:22.352Z,1.17
2023-03-12T01:04:50.036Z,1.10
2023-03-12T01:07:17.801Z,1.10
2023-03-12T01:09:45.806Z,1.27
2023-03-12T01:12:13.666Z,0.93
2023-03-12T01:14:41.499Z,1.22
2023-03-12T01:17:09.369Z,1.50
2023-03-12T01:19:37.076Z,1.25
2023-03-12T01:22:04.816Z,1.40
2023-03-12T01:24:32.620Z,1.20
2023-03-12T01:27:00.624Z,1.47
2023-03-12T01:29:28.371Z,1.00
2023-03-12T01:31:56.224Z,1.30
2023-03-12T01:34:24.265Z,1.30
2023-03-12T01:36:52.225Z,1.60
2023-03-12T01:39:20.322Z,1.42
2023-03-12T01:41:48.192Z,1.40
2023-03-12T01:44:16.116Z,1.40
2023-03-12T01:46:45.677Z,1.50
2023-03-12T01:49:23.541Z,1.15
2023-03-12T01:52:08.979Z,1.52
2023-03-12T01:54:46.721Z,1.30
2023-03-12T01:57:19.060Z,1.50
2023-03-12T01:59:52.258Z,1.57
2023-03-12T02:02:23.118Z,1.50
2023-03-12T02:04:59.038Z,1.20
2023-03-12T02:07:26.808Z,1.47
2023-03-12T02:09:54.595Z,1.60
2023-03-12T02:12:22.307Z,1.57
2023-03-12T02:14:50.221Z,1.40
2023-03-12T02:17:18.085Z,1.65
2023-03-12T02:19:57.300Z,1.32
2023-03-12T02:22:25.315Z,1.65
2023-03-12T02:25:19.548Z,1.60
2023-03-12T02:27:48.302Z,1.50
2023-03-12T02:30:17.145Z,1.12
2023-03-12T02:32:48.720Z,1.40
2023-03-12T02:35:17.475Z,1.60
2023-03-12T02:37:54.709Z,1.30
2023-03-12T02:40:39.184Z,1.37
2023-03-12T02:43:09.528Z,1.67
2023-03-12T02:45:38.573Z,1.62
2023-03-12T02:48:08.883Z,1.40
2023-03-12T02:50:36.803Z,1.50
2023-03-12T02:53:05.060Z,1.40
2023-03-12T02:55:33.415Z,1.60
2023-03-12T02:58:01.611Z,1.40
2023-03-12T03:00:31.712Z,1.17
2023-03-12T03:03:01.617Z,1.45
2023-03-12T03:05:29.307Z,1.30
2023-03-12T03:07:56.898Z,1.40
2023-03-12T03:10:24.691Z,1.40
2023-03-12T03:12:52.301Z,1.40
2023-03-12T03:15:20.173Z,1.40
2023-03-12T03:17:47.727Z,1.50
2023-03-12T03:20:15.913Z,1.30
2023-03-12T03:22:43.455Z,1.35
2023-03-12T03:25:11.523Z,1.67
2023-03-12T03:27:39.373Z,1.45
2023-03-12T03:30:09.370Z,1.50
2023-03-12T03:32:39.592Z,1.37
2023-03-12T03:35:09.475Z,1.50
2023-03-12T03:37:37.129Z,1.40
2023-03-12T03:40:08.763Z,1.30
2023-03-12T03:42:38.378Z,1.60
2023-03-12T03:45:08.910Z,1.52
2023-03-12T03:47:36.912Z,1.40
2023-03-12T03:50:06.642Z,1.52
2023-03-12T03:52:34.584Z,1.57
2023-03-12T03:55:02.225Z,1.70
2023-03-12T03:57:31.466Z,1.65
2023-03-12T04:00:03.063Z,1.50
2023-03-12T04:02:29.949Z,1.40
2023-03-12T04:04:58.640Z,1.62
2023-03-12T04:07:28.190Z,1.95
2023-03-12T04:09:57.736Z,1.92
2023-03-12T04:12:27.701Z,1.70
2023-03-12T04:14:55.969Z,2.10
2023-03-12T04:17:23.681Z,1.67
2023-03-12T04:19:51.519Z,1.62
2023-03-12T04:22:19.402Z,1.50
2023-03-12T04:24:47.065Z,1.92
2023-03-12T04:27:15.484Z,1.65
2023-03-12T04:29:44.780Z,2.42
2023-03-12T04:32:12.732Z,1.80
2023-03-12T04:34:40.553Z,4.45
2023-03-12T04:37:11.212Z,5.17
2023-03-12T04:39:39.555Z,2.62
2023-03-12T04:42:08.445Z,2.30
2023-03-12T04:44:37.684Z,2.27
2023-03-12T04:47:06.266Z,2.40
2023-03-12T04:49:34.621Z,2.10
2023-03-12T04:52:02.614Z,1.95
2023-03-12T04:54:31.419Z,2.00
2023-03-12T04:56:59.408Z,2.40
2023-03-12T04:59:27.832Z,1.80
2023-03-12T05:01:55.780Z,1.90
2023-03-12T05:04:25.378Z,1.90
2023-03-12T05:06:53.353Z,1.87
2023-03-12T05:09:20.888Z,2.27
2023-03-12T05:11:48.893Z,1.70
2023-03-12T05:14:18.054Z,2.00
2023-03-12T05:16:46.353Z,1.80
2023-03-12T05:19:14.177Z,1.85
2023-03-12T05:21:43.411Z,2.00
2023-03-12T05:24:11.651Z,1.85
2023-03-12T05:26:39.756Z,1.98
2023-03-12T05:29:11.923Z,1.65
2023-03-12T05:31:39.864Z,2.10
2023-03-12T05:34:08.471Z,1.70
2023-03-12T05:36:38.361Z,2.27
2023-03-12T05:39:07.198Z,2.10
2023-03-12T05:41:35.219Z,2.17
2023-03-12T05:44:09.351Z,2.10
2023-03-12T05:46:37.145Z,2.35
2023-03-12T05:49:05.723Z,2.52
2023-03-12T05:51:33.627Z,2.15
2023-03-12T05:54:02.212Z,2.33
2023-03-12T05:56:29.908Z,2.98
2023-03-12T05:58:57.625Z,2.67
2023-03-12T06:01:28.943Z,2.72
2023-03-12T06:03:58.924Z,2.65
2023-03-12T06:06:26.979Z,2.35
2023-03-12T06:08:55.333Z,2.65
2023-03-12T06:11:23.038Z,2.30
2023-03-12T06:13:51.133Z,2.87
2023-03-12T06:16:23.300Z,2.95
2023-03-12T06:18:56.346Z,2.90
2023-03-12T06:21:28.074Z,2.37
2023-03-12T06:23:57.044Z,1.85
2023-03-12T06:26:33.998Z,2.40
2023-03-12T06:29:02.021Z,2.60
2023-03-12T06:31:29.707Z,2.42
2023-03-12T06:33:57.687Z,2.25
2023-03-12T06:36:25.313Z,1.75
2023-03-12T06:38:56.583Z,2.37
2023-03-12T06:41:23.066Z,2.15
2023-03-12T06:43:51.072Z,1.65
2023-03-12T06:46:25.254Z,2.50
2023-03-12T06:48:52.958Z,2.08
2023-03-12T06:51:20.859Z,1.62
2023-03-12T06:53:48.472Z,1.70
2023-03-12T06:56:16.833Z,2.40
2023-03-12T06:58:44.632Z,2.12
2023-03-12T07:01:12.451Z,2.33
2023-03-12T07:03:40.548Z,2.05
2023-03-12T07:06:17.443Z,1.77
2023-03-12T07:08:46.181Z,2.12
2023-03-12T07:11:14.319Z,2.15
2023-03-12T07:13:42.342Z,2.65
2023-03-12T07:16:10.758Z,1.90
2023-03-12T07:18:38.664Z,2.08
2023-03-12T07:21:07.040Z,2.22
2023-03-12T07:23:34.742Z,1.42
2023-03-12T07:26:05.062Z,1.52
2023-03-12T07:28:32.741Z,1.87
2023-03-12T07:31:03.973Z,2.00
2023-03-12T07:33:32.087Z,2.08
2023-03-12T07:36:00.951Z,1.82
2023-03-12T07:38:28.811Z,2.05
2023-03-12T07:40:58.350Z,1.60
2023-03-12T07:43:26.736Z,1.60
2023-03-12T07:45:55.382Z,1.25
2023-03-12T07:48:23.078Z,1.87
2023-03-12T07:50:50.994Z,2.12
2023-03-12T07:53:19.369Z,1.55
2023-03-12T07:55:48.231Z,1.98
2023-03-12T07:58:17.170Z,4.30
2023-03-12T08:00:45.287Z,1.40
2023-03-12T08:03:13.384Z,1.55
2023-03-12T08:05:41.694Z,1.40
2023-03-12T08:08:09.786Z,1.55
2023-03-12T08:10:37.467Z,1.25
2023-03-12T08:13:05.257Z,1.27
2023-03-12T08:15:33.162Z,1.50
2023-03-12T08:18:01.120Z,1.27
2023-03-12T08:20:31.706Z,1.80
2023-03-12T08:22:59.637Z,1.40
2023-03-12T08:25:27.235Z,2.30
2023-03-12T08:27:55.094Z,4.03
2023-03-12T08:30:22.959Z,1.82
2023-03-12T08:32:50.592Z,1.75
2023-03-12T08:35:18.550Z,1.32
2023-03-12T08:37:46.101Z,1.10
2023-03-12T08:40:14.489Z,1.50
2023-03-12T08:42:45.196Z,1.47
2023-03-12T08:45:15.234Z,3.02
2023-03-12T08:47:44.032Z,1.50
2023-03-12T08:50:16.211Z,1.70
2023-03-12T08:52:44.476Z,2.27
2023-03-12T08:55:12.556Z,1.30
2023-03-12T08:57:40.628Z,1.30
2023-03-12T09:00:12.105Z,2.00
2023-03-12T09:02:39.857Z,1.20
2023-03-12T09:05:08.072Z,1.30
2023-03-12T09:07:36.001Z,1.10
2023-03-12T09:10:04.984Z,1.35
2023-03-12T09:12:32.870Z,1.45
2023-03-12T09:15:03.804Z,4.55
2023-03-12T09:17:29.975Z,1.50
2023-03-12T09:19:57.533Z,1.30
2023-03-12T09:22:25.398Z,1.17
2023-03-12T09:24:53.008Z,5.60
2023-03-12T09:27:20.532Z,1.90
2023-03-12T09:29:59.518Z,1.35
2023-03-12T09:32:18.423Z,1.42
2023-03-12T09:34:46.078Z,3.30
2023-03-12T09:37:13.653Z,1.80
2023-03-12T09:39:41.341Z,1.25
2023-03-12T09:42:14.371Z,3.67
2023-03-12T09:44:44.874Z,2.02
2023-03-12T09:47:34.835Z,1.92
2023-03-12T09:50:22.929Z,1.02
2023-03-12T09:53:32.430Z,2.98
2023-03-12T09:56:05.877Z,1.57
2023-03-12T09:58:37.105Z,1.25
2023-03-12T10:01:16.169Z,1.35
2023-03-12T10:04:19.678Z,1.92
2023-03-12T10:07:17.346Z,1.17
2023-03-12T10:10:06.809Z,1.50
2023-03-12T10:12:47.475Z,1.22
2023-03-12T10:15:31.978Z,1.52
2023-03-12T10:18:23.452Z,1.52
2023-03-12T10:21:24.203Z,1.30
2023-03-12T10:24:25.110Z,1.45
2023-03-12T10:26:55.448Z,1.32
2023-03-12T10:29:28.265Z,1.20
2023-03-12T10:32:04.112Z,1.12
2023-03-12T10:34:58.106Z,1.22
2023-03-12T10:37:49.029Z,1.50
2023-03-12T10:40:23.777Z,1.30
2023-03-12T10:42:51.693Z,1.20
2023-03-12T10:45:41.603Z,1.50
2023-03-12T10:48:14.294Z,1.10
2023-03-12T10:50:41.863Z,1.10
2023-03-12T10:53:30.222Z,1.15
2023-03-12T10:56:10.980Z,1.12
2023-03-12T10:58:48.806Z,1.10
2023-03-12T11:01:23.865Z,1.30
2023-03-12T11:03:54.543Z,1.05
2023-03-12T11:06:27.193Z,1.35
2023-03-12T11:09:16.657Z,1.75
2023-03-12T11:11:38.877Z,3.02
2023-03-12T11:14:12.742Z,1.30
2023-03-12T11:16:40.608Z,1.10
2023-03-12T11:19:15.451Z,1.20
2023-03-12T11:21:57.185Z,1.30
2023-03-12T11:24:24.806Z,1.47
2023-03-12T11:27:09.177Z,1.60
2023-03-12T11:29:42.952Z,2.00
2023-03-12T11:32:33.436Z,1.50
2023-03-12T11:35:01.980Z,1.50
2023-03-12T11:37:57.700Z,1.42
2023-03-12T11:40:48.626Z,1.17
2023-03-12T11:43:41.689Z,1.15
2023-03-12T11:46:08.856Z,0.88
2023-03-12T11:48:53.841Z,1.00
2023-03-12T11:51:48.186Z,0.98
2023-03-12T11:54:45.250Z,1.30
2023-03-12T11:57:42.176Z,1.00
2023-03-12T12:00:15.563Z,1.00
2023-03-12T12:03:00.356Z,1.30
2023-03-12T12:06:06.763Z,1.20
2023-03-12T12:09:18.547Z,1.10
2023-03-12T12:12:15.567Z,1.00
2023-03-12T12:15:09.523Z,0.80
2023-03-12T12:18:18.665Z,1.27
2023-03-12T12:21:01.158Z,1.47
2023-03-12T12:24:00.134Z,2.00
2023-03-12T12:26:52.780Z,1.12
2023-03-12T12:29:48.822Z,1.00
2023-03-12T12:32:21.934Z,1.52
2023-03-12T12:35:07.026Z,4.05
2023-03-12T12:37:52.231Z,1.82
2023-03-12T12:40:30.721Z,7.20
2023-03-12T12:43:36.703Z,8.78
2023-03-12T12:46:09.335Z,12.13
2023-03-12T12:49:01.345Z,9.08
2023-03-12T12:51:36.711Z,4.83
2023-03-12T12:54:25.102Z,8.90
2023-03-12T12:57:06.756Z,34.60
2023-03-12T12:59:51.890Z,51.68
2023-03-12T13:02:23.293Z,2.60
2023-03-12T13:04:50.995Z,3.45
2023-03-12T13:07:25.848Z,11.93
2023-03-12T13:09:58.321Z,2.27
2023-03-12T13:12:42.990Z,1.92
2023-03-12T13:15:33.822Z,1.40
2023-03-12T13:18:08.658Z,1.50
2023-03-12T13:20:53.232Z,1.50
2023-03-12T13:24:02.467Z,1.50
2023-03-12T13:26:50.108Z,1.10
2023-03-12T13:29:32.192Z,1.25
2023-03-12T13:31:59.679Z,1.05
2023-03-12T13:34:31.865Z,1.30
2023-03-12T13:37:04.722Z,1.00
2023-03-12T13:39:35.812Z,1.15
2023-03-12T13:42:44.396Z,2.50
2023-03-12T13:45:26.422Z,0.93
2023-03-12T13:47:59.017Z,1.00
2023-03-12T13:50:28.827Z,1.75
2023-03-12T13:53:06.867Z,1.00
2023-03-12T13:55:36.773Z,1.10
2023-03-12T13:58:19.597Z,2.12
2023-03-12T14:00:58.288Z,2.00
2023-03-12T14:03:38.663Z,2.45
2023-03-12T14:06:13.645Z,6.65
2023-03-12T14:09:04.782Z,1.90
2023-03-12T14:11:57.765Z,1.20
2023-03-12T14:14:53.917Z,1.32
2023-03-12T14:17:26.844Z,1.10
2023-03-12T14:20:16.991Z,1.42
2023-03-12T14:22:52.036Z,1.12
2023-03-12T14:25:27.787Z,1.50
2023-03-12T14:27:55.881Z,2.40
2023-03-12T14:30:45.255Z,3.58
2023-03-12T14:33:15.749Z,2.55
2023-03-12T14:36:14.481Z,1.35
2023-03-12T14:38:45.736Z,2.17
2023-03-12T14:41:21.037Z,1.65
2023-03-12T14:43:52.666Z,2.10
2023-03-12T14:46:23.936Z,1.40
2023-03-12T14:48:57.349Z,1.75
2023-03-12T14:53:56.979Z,1.62
2023-03-12T14:56:32.830Z,1.52
2023-03-12T14:59:21.603Z,1.30
2023-03-12T15:01:49.774Z,1.55
2023-03-12T15:04:22.133Z,1.70
2023-03-12T15:06:54.201Z,1.35
2023-03-12T15:09:26.173Z,2.17
2023-03-12T15:12:06.973Z,1.67
2023-03-12T15:14:38.891Z,1.60
2023-03-12T15:17:07.481Z,1.77
2023-03-12T15:19:39.760Z,1.98
2023-03-12T15:22:15.009Z,1.90
2023-03-12T15:24:43.533Z,2.22
2023-03-12T15:27:28.762Z,2.60
2023-03-12T15:29:59.131Z,1.80
2023-03-12T15:32:29.976Z,2.60
2023-03-12T15:34:59.356Z,1.80
2023-03-12T15:37:34.279Z,1.95
2023-03-12T15:40:06.142Z,1.32
2023-03-12T15:42:41.331Z,1.40
2023-03-12T15:45:19.766Z,2.05
2023-03-12T15:47:48.467Z,2.30
2023-03-12T15:50:38.814Z,3.17
2023-03-12T15:53:14.479Z,2.60
2023-03-12T15:55:42.987Z,2.87
2023-03-12T15:58:32.552Z,3.08
2023-03-12T16:01:14.280Z,7.03
2023-03-12T16:03:44.948Z,4.75
2023-03-12T16:06:28.539Z,6.55
2023-03-12T16:08:59.915Z,4.92
2023-03-12T16:11:31.967Z,4.83
2023-03-12T16:14:19.019Z,5.95
2023-03-12T16:16:47.557Z,14.30
2023-03-12T16:19:19.361Z,6.65
2023-03-12T16:21:48.008Z,6.17
2023-03-12T16:24:16.240Z,6.28
2023-03-12T16:26:54.420Z,5.65
2023-03-12T16:29:26.071Z,5.80
2023-03-12T16:31:55.721Z,5.05
2023-03-12T16:34:23.803Z,5.87
2023-03-12T16:36:51.898Z,7.53
2023-03-12T16:39:20.091Z,8.30
2023-03-12T16:41:47.840Z,9.50
2023-03-12T16:44:21.316Z,12.55
2023-03-12T16:46:49.175Z,16.40
2023-03-12T16:49:19.596Z,18.55
2023-03-12T16:51:47.512Z,24.12
2023-03-12T16:54:15.308Z,22.75
2023-03-12T16:56:47.693Z,36.45
2023-03-12T16:59:25.561Z,28.70
2023-03-12T17:01:53.727Z,18.82
2023-03-12T17:04:21.433Z,15.05
2023-03-12T17:06:49.205Z,14.93
2023-03-12T17:09:18.429Z,13.08
2023-03-12T17:11:49.855Z,10.78
2023-03-12T17:14:21.677Z,12.50
2023-03-12T17:16:50.453Z,13.40
2023-03-12T17:19:18.343Z,12.95
2023-03-12T17:21:47.870Z,9.65
2023-03-12T17:24:16.442Z,10.80
2023-03-12T17:26:45.910Z,13.93
2023-03-12T17:29:13.671Z,14.60
2023-03-12T17:31:41.431Z,15.85
2023-03-12T17:34:09.050Z,18.90
2023-03-12T17:36:37.793Z,22.73
2023-03-12T17:39:05.766Z,19.80
2023-03-12T17:41:33.856Z,29.70
2023-03-12T17:44:03.155Z,27.07
2023-03-12T17:46:31.566Z,26.65
2023-03-12T17:48:59.203Z,36.33
2023-03-12T17:51:26.897Z,42.78
2023-03-12T17:53:54.938Z,33.42
2023-03-12T17:56:23.774Z,28.20
2023-03-12T17:58:51.474Z,28.17
2023-03-12T18:01:19.541Z,50.03
2023-03-12T18:03:50.362Z,56.63
2023-03-12T18:06:19.897Z,42.55
2023-03-12T18:08:47.874Z,37.58
2023-03-12T18:11:15.452Z,44.95
2023-03-12T18:13:43.040Z,39.33
2023-03-12T18:16:10.754Z,31.55
2023-03-12T18:18:38.568Z,32.67
2023-03-12T18:21:06.609Z,37.20
2023-03-12T18:23:34.337Z,25.52
2023-03-12T18:26:03.375Z,27.27
2023-03-12T18:28:33.785Z,20.23
2023-03-12T18:31:01.406Z,20.48
2023-03-12T18:33:30.339Z,20.55
2023-03-12T18:35:58.193Z,23.55
2023-03-12T18:38:26.185Z,27.80
2023-03-12T18:41:08.158Z,21.40
2023-03-12T18:43:36.588Z,22.98
2023-03-12T18:46:05.535Z,19.70
2023-03-12T18:48:32.981Z,15.63
2023-03-12T18:51:00.968Z,15.80
2023-03-12T18:53:33.359Z,15.78
2023-03-12T18:56:02.657Z,16.70
2023-03-12T18:58:30.249Z,16.60
2023-03-12T19:00:58.835Z,15.48
2023-03-12T19:03:26.761Z,24.82
2023-03-12T19:06:07.874Z,22.85
2023-03-12T19:08:36.962Z,25.25
2023-03-12T19:11:12.045Z,32.45
2023-03-12T19:13:40.122Z,25.10
2023-03-12T19:16:10.641Z,26.12
2023-03-12T19:18:39.529Z,30.70
2023-03-12T19:21:08.100Z,41.45
2023-03-12T19:23:36.090Z,47.27
2023-03-12T19:26:04.652Z,46.23
2023-03-12T19:28:32.224Z,39.42
2023-03-12T19:31:06.895Z,39.78
2023-03-12T19:33:36.152Z,43.28
2023-03-12T19:36:04.892Z,48.60
2023-03-12T19:38:33.208Z,61.90
2023-03-12T19:41:01.107Z,78.97
2023-03-12T19:43:29.287Z,78.70
2023-03-12T19:45:57.135Z,60.48
2023-03-12T19:48:24.960Z,49.70
2023-03-12T19:50:54.371Z,25.85
2023-03-12T19:53:22.578Z,29.27
2023-03-12T19:55:50.617Z,34.65
2023-03-12T19:58:18.647Z,38.70
2023-03-12T20:00:48.979Z,25.57
2023-03-12T20:03:16.740Z,21.85
2023-03-12T20:05:45.058Z,21.60
2023-03-12T20:08:13.324Z,26.90
2023-03-12T20:10:41.068Z,31.25
2023-03-12T20:13:10.625Z,33.20
2023-03-12T20:15:39.721Z,32.53
2023-03-12T20:18:07.276Z,24.15
2023-03-12T20:20:34.975Z,24.15
2023-03-12T20:23:03.996Z,24.80
2023-03-12T20:25:32.986Z,26.87
2023-03-12T20:28:00.773Z,30.97
2023-03-12T20:30:28.655Z,32.70
2023-03-12T20:32:56.174Z,29.87
2023-03-12T20:35:23.915Z,31.15
2023-03-12T20:37:51.751Z,32.60
2023-03-12T20:40:19.982Z,34.48
2023-03-12T20:42:47.542Z,47.80
2023-03-12T20:45:15.372Z,37.78
2023-03-12T20:47:43.062Z,38.30
2023-03-12T20:50:11.758Z,38.42
2023-03-12T20:52:39.711Z,34.48
2023-03-12T20:55:08.136Z,39.33
2023-03-12T20:57:36.020Z,49.03
2023-03-12T21:00:05.172Z,41.60
2023-03-12T21:02:32.816Z,39.18
2023-03-12T21:05:00.403Z,47.65
2023-03-12T21:07:28.177Z,34.25
2023-03-12T21:09:56.039Z,16.95
2023-03-12T21:12:23.704Z,18.92
2023-03-12T21:14:51.333Z,20.92
2023-03-12T21:17:18.940Z,28.70
2023-03-12T21:19:46.795Z,29.55
2023-03-12T21:22:14.514Z,27.52
2023-03-12T21:24:42.107Z,24.25
2023-03-12T21:27:10.795Z,20.15
2023-03-12T21:29:38.451Z,19.30
2023-03-12T21:32:07.465Z,20.88
2023-03-12T21:34:36.242Z,24.00
2023-03-12T21:37:05.263Z,31.75
2023-03-12T21:39:34.118Z,29.02
2023-03-12T21:42:01.980Z,30.57
2023-03-12T21:44:29.564Z,31.57
2023-03-12T21:46:58.297Z,42.10
2023-03-12T21:49:26.254Z,34.48
2023-03-12T21:51:53.965Z,33.02
2023-03-12T21:54:21.441Z,33.35
2023-03-12T21:56:49.495Z,30.15
2023-03-12T21:59:17.029Z,31.77
2023-03-12T22:01:44.432Z,36.80
2023-03-12T22:04:12.505Z,40.80
2023-03-12T22:06:42.002Z,40.10
2023-03-12T22:09:09.444Z,40.17
2023-03-12T22:11:37.320Z,34.95
2023-03-12T22:14:04.822Z,29.10
2023-03-12T22:16:32.585Z,29.57
2023-03-12T22:19:00.518Z,30.30
2023-03-12T22:21:28.199Z,27.98
2023-03-12T22:23:56.801Z,23.18
2023-03-12T22:26:27.544Z,22.10
2023-03-12T22:28:57.426Z,21.10
2023-03-12T22:31:28.610Z,26.12
2023-03-12T22:33:57.000Z,25.25
2023-03-12T22:36:24.950Z,28.95
2023-03-12T22:38:52.813Z,29.07
2023-03-12T22:41:29.166Z,28.67
2023-03-12T22:44:04.345Z,29.02
2023-03-12T22:46:32.414Z,29.80
2023-03-12T22:49:02.569Z,32.63
2023-03-12T22:51:33.083Z,30.68
2023-03-12T22:54:02.708Z,34.00
2023-03-12T22:56:30.398Z,36.42
2023-03-12T22:58:58.570Z,36.25
2023-03-12T23:01:26.427Z,37.10
2023-03-12T23:03:54.366Z,36.03
2023-03-12T23:06:26.125Z,36.08
2023-03-12T23:08:54.760Z,36.83
2023-03-12T23:11:25.030Z,37.00
2023-03-12T23:13:53.528Z,36.58
2023-03-12T23:16:24.547Z,38.40
2023-03-12T23:18:52.474Z,34.90
2023-03-12T23:21:22.950Z,35.73
2023-03-12T23:23:51.853Z,40.48
2023-03-12T23:26:23.683Z,38.65
2023-03-12T23:28:52.901Z,35.95
2023-03-12T23:31:21.079Z,30.48
2023-03-12T23:33:48.799Z,31.48
2023-03-12T23:36:20.571Z,34.10
2023-03-12T23:38:49.850Z,40.33
2023-03-12T23:41:24.199Z,38.10
2023-03-12T23:43:52.815Z,38.98
2023-03-12T23:46:21.103Z,40.95
2023-03-12T23:48:49.553Z,42.45
2023-03-12T23:51:20.805Z,35.63
2023-03-12T23:53:52.293Z,30.40
2023-03-12T23:56:23.523Z,27.75
2023-03-12T23:58:51.550Z,27.17
